Time;durP1;ratioP1;P1;durP2;ratioP2;P2;SDS_P1;SDS_P2;PMS_P1;PMS_P2;Temp;Humidity;BMP_temperature;BMP_pressure;BME280_temperature;BME280_humidity;BME280_pressure;Samples;Min_cycle;Max_cycle;Signal;HPM_P1;HPM_P2
2023/02/02 00:01:47;;;;;;;9.97;3.63;;;3.10;99.90;;;;;;5030036;28;20601;-57
2023/02/02 00:04:28;;;;;;;2.80;2.13;;;3.10;99.90;;;;;;5034282;28;20922;-56
2023/02/02 00:06:57;;;;;;;8.70;2.60;;;3.00;99.90;;;;;;5039477;28;20822;-57
2023/02/02 00:09:27;;;;;;;4.80;2.73;;;3.10;99.90;;;;;;5048144;28;20445;-56
2023/02/02 00:11:54;;;;;;;5.03;2.70;;;3.00;99.90;;;;;;5039628;28;20938;-56
2023/02/02 00:14:20;;;;;;;12.33;3.00;;;3.00;99.90;;;;;;5037492;28;20432;-56
2023/02/02 00:16:46;;;;;;;7.03;2.60;;;3.00;99.90;;;;;;5031146;28;20437;-56
2023/02/02 00:19:30;;;;;;;8.07;2.80;;;3.00;99.90;;;;;;5051033;28;20182;-56
2023/02/02 00:21:56;;;;;;;17.90;3.67;;;3.00;99.90;;;;;;5059698;28;20517;-57
2023/02/02 00:24:22;;;;;;;12.83;3.70;;;3.00;99.90;;;;;;5054273;28;20518;-56
2023/02/02 00:26:50;;;;;;;5.57;2.50;;;3.00;99.90;;;;;;5050207;28;20481;-58
2023/02/02 00:29:22;;;;;;;10.30;3.03;;;3.00;99.90;;;;;;5069875;28;20205;-58
2023/02/02 00:31:49;;;;;;;10.60;3.13;;;3.00;99.90;;;;;;5048351;28;20475;-56
2023/02/02 00:34:15;;;;;;;12.13;3.20;;;3.00;99.90;;;;;;5050297;28;20821;-55
2023/02/02 00:36:42;;;;;;;8.60;3.00;;;3.00;99.90;;;;;;5045877;28;20433;-57
2023/02/02 00:39:09;;;;;;;13.00;3.07;;;3.00;99.90;;;;;;5044742;28;20956;-56
2023/02/02 00:41:34;;;;;;;6.83;2.93;;;3.00;99.90;;;;;;5046525;28;20469;-56
2023/02/02 00:46:44;;;;;;;9.73;2.53;;;2.90;99.90;;;;;;5037608;28;20264;-56
2023/02/02 00:49:10;;;;;;;10.23;3.10;;;2.90;99.90;;;;;;5049072;28;20408;-56
2023/02/02 00:51:36;;;;;;;10.93;3.07;;;2.90;99.90;;;;;;5048602;28;20266;-57
2023/02/02 00:54:03;;;;;;;6.60;3.27;;;2.90;99.90;;;;;;5045686;28;20214;-56
2023/02/02 00:56:29;;;;;;;12.00;3.53;;;2.90;99.90;;;;;;5048360;28;20512;-56
2023/02/02 00:58:54;;;;;;;12.83;4.20;;;2.90;99.90;;;;;;5038080;28;20838;-57
2023/02/02 01:01:21;;;;;;;12.10;3.00;;;3.00;99.90;;;;;;5029099;28;20306;-57
2023/02/02 01:03:48;;;;;;;14.20;3.60;;;3.00;99.90;;;;;;5044424;28;20283;-56
2023/02/02 01:06:13;;;;;;;9.80;3.17;;;3.00;99.90;;;;;;5044593;28;20426;-57
2023/02/02 01:08:39;;;;;;;17.63;3.83;;;3.00;99.90;;;;;;5045851;28;20494;-56
2023/02/02 01:11:05;;;;;;;11.40;2.90;;;3.00;99.90;;;;;;5045135;28;20244;-57
2023/02/02 01:13:32;;;;;;;10.70;3.60;;;3.00;99.90;;;;;;5044783;28;20684;-56
2023/02/02 01:15:59;;;;;;;14.93;3.90;;;3.00;99.90;;;;;;5040536;28;20425;-55
2023/02/02 01:18:25;;;;;;;6.77;3.50;;;3.00;99.90;;;;;;5024461;28;20927;-57
2023/02/02 01:20:57;;;;;;;12.77;3.13;;;3.00;99.90;;;;;;5046867;28;20486;-57
2023/02/02 01:23:23;;;;;;;12.50;3.60;;;3.00;99.90;;;;;;5047934;28;20445;-56
2023/02/02 01:25:56;;;;;;;9.60;4.03;;;3.00;99.90;;;;;;5049263;28;20421;-56
2023/02/02 01:28:23;;;;;;;15.57;3.57;;;3.00;99.90;;;;;;5045072;28;20190;-58
2023/02/02 01:30:49;;;;;;;9.00;3.87;;;3.00;99.90;;;;;;5047994;28;20430;-57
2023/02/02 01:33:19;;;;;;;15.27;4.40;;;3.00;99.90;;;;;;5071560;28;20428;-57
2023/02/02 01:35:49;;;;;;;7.77;2.90;;;3.00;99.90;;;;;;5057271;28;20988;-56
2023/02/02 01:38:15;;;;;;;10.60;3.30;;;3.00;99.90;;;;;;5036093;28;20449;-55
2023/02/02 01:40:51;;;;;;;10.70;3.53;;;3.00;99.90;;;;;;5044168;28;20840;-56
2023/02/02 01:43:23;;;;;;;13.77;3.37;;;3.00;99.90;;;;;;5045608;28;21003;-56
2023/02/02 01:45:53;;;;;;;11.00;3.90;;;3.00;99.90;;;;;;5046222;28;20429;-56
2023/02/02 01:48:23;;;;;;;7.80;3.40;;;3.00;99.90;;;;;;5042652;28;20451;-58
2023/02/02 01:50:51;;;;;;;15.80;3.30;;;3.00;99.90;;;;;;5049137;28;20462;-55
2023/02/02 01:53:18;;;;;;;10.10;3.70;;;3.00;99.90;;;;;;5041609;28;20535;-57
2023/02/02 01:55:46;;;;;;;8.53;4.10;;;3.00;99.90;;;;;;5043081;28;20437;-57
2023/02/02 01:58:35;;;;;;;9.80;3.43;;;3.00;99.90;;;;;;5047246;28;20421;-56
2023/02/02 02:01:01;;;;;;;17.90;4.03;;;3.00;99.90;;;;;;5038221;28;20522;-56
2023/02/02 02:03:30;;;;;;;15.33;2.90;;;3.00;99.90;;;;;;5038189;28;20826;-55
2023/02/02 02:06:01;;;;;;;14.03;3.40;;;3.00;99.90;;;;;;5023204;28;20179;-57
2023/02/02 02:08:42;;;;;;;7.63;3.30;;;3.00;99.90;;;;;;5041135;28;20446;-56
2023/02/02 02:11:08;;;;;;;11.13;3.70;;;3.00;99.90;;;;;;5045974;28;20460;-55
2023/02/02 02:16:47;;;;;;;8.33;3.20;;;3.00;99.90;;;;;;5046632;28;20217;-55
2023/02/02 02:19:22;;;;;;;12.60;3.53;;;3.00;99.90;;;;;;5047011;28;20486;-55
2023/02/02 02:28:25;;;;;;;14.97;3.23;;;2.90;99.90;;;;;;5040758;28;20499;-56
2023/02/02 02:31:24;;;;;;;13.37;2.87;;;3.00;99.90;;;;;;5006052;28;20950;-60
2023/02/02 02:33:59;;;;;;;9.00;2.80;;;3.00;99.90;;;;;;5053648;28;20457;-58
2023/02/02 02:36:56;;;;;;;18.03;3.37;;;3.00;99.90;;;;;;5066294;28;20493;-69
2023/02/02 02:39:33;;;;;;;6.10;2.93;;;3.00;99.90;;;;;;5061506;28;20441;-58
2023/02/02 02:42:06;;;;;;;4.90;2.60;;;3.00;99.90;;;;;;5045771;28;20476;-57
2023/02/02 02:44:33;;;;;;;6.07;2.40;;;3.00;99.90;;;;;;5039989;28;20440;-57
2023/02/02 02:46:59;;;;;;;13.83;2.83;;;3.00;99.90;;;;;;5042311;28;20437;-56
2023/02/02 02:49:25;;;;;;;11.07;3.10;;;3.00;99.90;;;;;;5047877;28;20412;-57
2023/02/02 02:51:55;;;;;;;15.70;3.77;;;3.00;99.90;;;;;;5031530;28;21007;-56
2023/02/02 02:54:28;;;;;;;8.40;3.30;;;3.00;99.90;;;;;;5026398;28;20521;-56
2023/02/02 02:57:20;;;;;;;8.33;2.10;;;3.00;99.90;;;;;;5045240;28;20928;-56
2023/02/02 03:00:06;;;;;;;6.97;2.80;;;3.00;99.90;;;;;;5043599;28;20459;-56
2023/02/02 03:02:51;;;;;;;10.60;3.07;;;3.00;99.90;;;;;;5043177;28;20548;-57
2023/02/02 03:05:26;;;;;;;8.07;2.20;;;3.00;99.90;;;;;;5044260;28;20513;-57
2023/02/02 03:08:30;;;;;;;12.47;2.57;;;3.00;99.90;;;;;;5043783;28;20428;-56
2023/02/02 03:10:57;;;;;;;4.37;2.73;;;3.00;99.90;;;;;;5027861;28;20491;-57
2023/02/02 03:13:25;;;;;;;5.10;2.47;;;3.00;99.90;;;;;;5042250;28;20531;-57
2023/02/02 03:15:51;;;;;;;7.00;2.10;;;3.00;99.90;;;;;;5044391;28;20592;-56
2023/02/02 03:18:20;;;;;;;5.27;2.20;;;3.00;99.90;;;;;;5041341;28;20426;-57
2023/02/02 03:20:46;;;;;;;7.03;2.00;;;3.00;99.90;;;;;;5042420;28;20442;-57
2023/02/02 03:23:12;;;;;;;5.17;2.20;;;3.10;99.90;;;;;;5026231;28;20495;-56
2023/02/02 03:25:37;;;;;;;4.50;2.17;;;3.10;99.90;;;;;;5046433;28;20175;-56
2023/02/02 03:28:04;;;;;;;8.90;2.60;;;3.10;99.90;;;;;;5044797;28;20182;-58
2023/02/02 03:30:30;;;;;;;5.87;2.13;;;3.10;99.90;;;;;;5065044;28;20175;-59
2023/02/02 03:32:56;;;;;;;3.90;2.37;;;3.10;99.90;;;;;;5056498;28;20519;-57
2023/02/02 03:35:22;;;;;;;4.60;1.70;;;3.10;99.90;;;;;;5048467;28;20430;-58
2023/02/02 03:37:48;;;;;;;11.70;2.50;;;3.10;99.90;;;;;;5040386;28;20178;-58
2023/02/02 03:40:14;;;;;;;4.63;2.03;;;3.10;99.90;;;;;;5042936;28;20195;-56
2023/02/02 03:42:39;;;;;;;7.53;2.40;;;3.10;99.90;;;;;;5031730;28;20206;-58
2023/02/02 03:45:06;;;;;;;5.10;2.37;;;3.10;99.90;;;;;;5059358;28;20432;-57
2023/02/02 03:47:32;;;;;;;9.73;2.40;;;3.10;99.90;;;;;;5040680;28;20197;-60
2023/02/02 03:49:57;;;;;;;4.83;2.10;;;3.10;99.90;;;;;;5065182;28;20422;-62
2023/02/02 03:52:24;;;;;;;4.60;2.20;;;3.10;99.90;;;;;;5072777;28;20915;-59
2023/02/02 03:54:50;;;;;;;3.67;2.20;;;3.10;99.90;;;;;;5051711;28;20167;-59
2023/02/02 03:57:15;;;;;;;3.83;2.30;;;3.10;99.90;;;;;;5052250;28;20936;-57
2023/02/02 03:59:41;;;;;;;3.43;1.83;;;3.10;99.90;;;;;;5043103;28;20425;-56
2023/02/02 04:02:06;;;;;;;4.57;2.00;;;3.10;99.90;;;;;;5040933;28;20230;-56
2023/02/02 04:04:33;;;;;;;6.73;2.13;;;3.10;99.90;;;;;;5046999;28;20179;-58
2023/02/02 04:06:58;;;;;;;8.43;2.20;;;3.10;99.90;;;;;;5045198;28;20190;-56
2023/02/02 04:09:24;;;;;;;6.77;2.27;;;3.10;99.90;;;;;;5050616;28;20433;-57
2023/02/02 04:11:50;;;;;;;5.73;2.33;;;3.10;99.90;;;;;;5054159;28;20172;-56
2023/02/02 04:14:15;;;;;;;7.20;2.70;;;3.10;99.90;;;;;;5057653;28;20587;-57
2023/02/02 04:16:41;;;;;;;6.03;2.07;;;3.20;99.90;;;;;;5045924;28;20182;-56
2023/02/02 04:19:07;;;;;;;3.83;1.60;;;3.10;99.90;;;;;;5048887;28;20187;-56
2023/02/02 04:21:33;;;;;;;4.83;2.17;;;3.20;99.90;;;;;;5044862;28;20218;-57
2023/02/02 04:23:59;;;;;;;4.53;2.17;;;3.10;99.90;;;;;;5048804;28;20472;-57
2023/02/02 04:26:25;;;;;;;5.43;2.30;;;3.10;99.90;;;;;;5048464;28;20264;-56
2023/02/02 04:28:51;;;;;;;7.00;2.20;;;3.10;99.90;;;;;;5048465;28;21148;-57
2023/02/02 04:31:17;;;;;;;4.43;2.13;;;3.10;99.90;;;;;;5052576;28;20195;-59
2023/02/02 04:33:42;;;;;;;4.23;2.03;;;3.20;99.90;;;;;;5031615;28;20468;-57
2023/02/02 04:36:09;;;;;;;6.97;2.03;;;3.20;99.90;;;;;;5058959;28;20168;-58
2023/02/02 04:38:35;;;;;;;4.03;1.80;;;3.20;99.90;;;;;;5052480;28;20191;-56
2023/02/02 04:41:09;;;;;;;12.03;1.83;;;3.20;99.90;;;;;;5050097;28;20945;-57
2023/02/02 04:43:35;;;;;;;6.93;1.77;;;3.20;99.90;;;;;;5031480;28;20555;-58
2023/02/02 04:46:02;;;;;;;3.40;2.10;;;3.20;99.90;;;;;;5040945;28;20433;-57
2023/02/02 04:48:27;;;;;;;3.00;1.90;;;3.20;99.90;;;;;;5044750;28;20501;-57
2023/02/02 04:51:00;;;;;;;6.63;1.87;;;3.20;99.90;;;;;;5047572;28;20512;-57
2023/02/02 04:53:26;;;;;;;4.63;1.70;;;3.20;99.90;;;;;;5037625;28;20194;-58
2023/02/02 04:55:51;;;;;;;7.40;2.47;;;3.30;99.90;;;;;;5039765;28;20452;-58
2023/02/02 04:58:18;;;;;;;1.90;1.70;;;3.30;99.90;;;;;;5058088;28;20418;-59
2023/02/02 05:00:43;;;;;;;4.43;1.90;;;3.30;99.90;;;;;;5069435;28;20186;-57
2023/02/02 05:03:09;;;;;;;6.67;2.20;;;3.40;99.90;;;;;;5063900;28;20533;-56
2023/02/02 05:05:35;;;;;;;11.53;3.00;;;3.40;99.90;;;;;;5050113;28;20202;-55
2023/02/02 05:08:00;;;;;;;7.77;2.37;;;3.40;99.90;;;;;;5030564;28;20176;-56
2023/02/02 05:10:26;;;;;;;8.60;2.40;;;3.40;99.90;;;;;;5045112;28;20811;-55
2023/02/02 05:12:52;;;;;;;7.03;2.10;;;3.40;99.90;;;;;;5044124;28;20820;-55
2023/02/02 05:15:20;;;;;;;6.87;2.17;;;3.40;99.90;;;;;;5034660;28;20613;-55
2023/02/02 05:17:46;;;;;;;4.50;1.90;;;3.40;99.90;;;;;;5038845;28;20484;-55
2023/02/02 05:20:11;;;;;;;5.13;2.10;;;3.40;99.90;;;;;;5026948;28;20839;-53
2023/02/02 05:22:37;;;;;;;7.33;2.20;;;3.40;99.90;;;;;;5045536;28;20271;-55
2023/02/02 05:25:04;;;;;;;4.47;1.70;;;3.40;99.90;;;;;;5046377;28;20278;-57
2023/02/02 05:27:30;;;;;;;5.57;2.03;;;3.40;99.90;;;;;;5021034;28;20266;-55
2023/02/02 05:29:56;;;;;;;9.63;2.50;;;3.40;99.90;;;;;;5043147;28;20888;-55
2023/02/02 05:32:22;;;;;;;8.00;2.10;;;3.40;99.90;;;;;;5040299;28;20199;-54
2023/02/02 05:34:47;;;;;;;5.17;1.97;;;3.40;99.90;;;;;;5038509;28;20733;-55
2023/02/02 05:37:13;;;;;;;4.30;1.80;;;3.40;99.90;;;;;;5042727;28;20244;-55
2023/02/02 05:39:38;;;;;;;4.10;2.17;;;3.40;99.90;;;;;;5041995;28;22476;-55
2023/02/02 05:42:04;;;;;;;6.70;2.30;;;3.30;99.90;;;;;;5043798;28;20207;-54
2023/02/02 05:44:30;;;;;;;6.17;2.30;;;3.40;99.90;;;;;;5028816;28;20206;-56
2023/02/02 05:46:56;;;;;;;5.80;2.10;;;3.40;99.90;;;;;;5039350;28;20248;-55
2023/02/02 05:49:21;;;;;;;6.83;2.40;;;3.30;99.90;;;;;;5021867;28;20238;-56
2023/02/02 05:51:50;;;;;;;4.50;2.03;;;3.30;99.90;;;;;;5038213;28;20214;-55
2023/02/02 05:54:19;;;;;;;4.50;2.17;;;3.30;99.90;;;;;;5040713;28;20223;-56
2023/02/02 05:56:46;;;;;;;7.23;2.13;;;3.40;99.90;;;;;;5043266;28;20863;-54
2023/02/02 05:59:11;;;;;;;4.40;2.30;;;3.40;99.90;;;;;;5021119;28;20873;-55
2023/02/02 06:01:37;;;;;;;8.13;2.10;;;3.40;99.90;;;;;;5019297;28;20612;-54
2023/02/02 06:04:03;;;;;;;6.73;2.20;;;3.40;99.90;;;;;;5065263;28;20222;-55
2023/02/02 06:06:28;;;;;;;2.73;1.90;;;3.40;99.90;;;;;;5059854;28;20685;-55
2023/02/02 06:08:54;;;;;;;2.30;1.80;;;3.40;99.90;;;;;;5041100;28;20200;-56
2023/02/02 06:11:19;;;;;;;4.03;2.20;;;3.40;99.90;;;;;;5040222;28;20309;-55
2023/02/02 06:13:45;;;;;;;7.70;2.50;;;3.40;99.90;;;;;;5033608;28;20219;-55
2023/02/02 06:16:11;;;;;;;4.53;1.93;;;3.40;99.90;;;;;;5034822;28;20579;-54
2023/02/02 06:18:36;;;;;;;4.40;2.03;;;3.40;99.90;;;;;;5042964;28;20193;-56
2023/02/02 06:21:07;;;;;;;4.23;2.43;;;3.40;99.90;;;;;;5049060;28;20179;-55
2023/02/02 06:23:33;;;;;;;6.10;2.17;;;3.40;99.90;;;;;;5065545;28;20255;-61
2023/02/02 06:25:59;;;;;;;7.10;2.30;;;3.40;99.90;;;;;;5064555;28;20460;-56
2023/02/02 06:28:25;;;;;;;6.10;2.20;;;3.30;99.90;;;;;;5068227;28;20688;-57
2023/02/02 06:30:50;;;;;;;3.37;1.73;;;3.30;99.90;;;;;;5048054;28;20457;-55
2023/02/02 06:33:16;;;;;;;6.47;2.33;;;3.30;99.90;;;;;;5037449;28;20274;-55
2023/02/02 06:35:42;;;;;;;4.67;2.07;;;3.30;99.90;;;;;;5037442;28;20838;-55
2023/02/02 06:38:07;;;;;;;6.10;2.07;;;3.30;99.90;;;;;;5041871;28;20190;-55
2023/02/02 06:40:33;;;;;;;4.40;2.20;;;3.30;99.90;;;;;;5034929;28;20876;-55
2023/02/02 06:43:01;;;;;;;3.93;2.10;;;3.30;99.90;;;;;;5042318;28;20347;-55
2023/02/02 06:45:28;;;;;;;7.43;2.50;;;3.20;99.90;;;;;;5022787;28;20606;-57
2023/02/02 06:47:57;;;;;;;8.20;2.20;;;3.20;99.90;;;;;;5040244;28;20991;-55
2023/02/02 06:50:22;;;;;;;6.57;2.00;;;3.20;99.90;;;;;;5039831;28;21062;-55
2023/02/02 06:52:52;;;;;;;8.73;2.53;;;3.20;99.90;;;;;;5031187;28;21035;-54
2023/02/02 06:55:18;;;;;;;5.37;1.80;;;3.20;99.90;;;;;;5036340;28;20988;-54
2023/02/02 06:57:45;;;;;;;4.20;2.00;;;3.20;99.90;;;;;;5045221;28;20461;-56
2023/02/02 07:00:11;;;;;;;9.13;2.80;;;3.20;99.90;;;;;;5037949;28;20461;-54
2023/02/02 07:02:37;;;;;;;3.53;2.10;;;3.20;99.90;;;;;;5043318;28;20480;-54
2023/02/02 07:05:03;;;;;;;4.13;2.10;;;3.20;99.90;;;;;;5038351;28;20445;-55
2023/02/02 07:07:33;;;;;;;5.10;2.37;;;3.20;99.90;;;;;;5040226;28;20946;-54
2023/02/02 07:09:58;;;;;;;8.50;2.60;;;3.20;99.90;;;;;;5036637;28;20179;-61
2023/02/02 07:12:25;;;;;;;6.00;2.00;;;3.20;99.90;;;;;;5043027;28;20452;-55
2023/02/02 07:14:51;;;;;;;8.03;2.30;;;3.20;99.90;;;;;;5023461;28;20703;-55
2023/02/02 07:17:17;;;;;;;4.50;2.23;;;3.20;99.90;;;;;;5039475;28;20555;-55
2023/02/02 07:19:42;;;;;;;4.53;2.20;;;3.20;99.90;;;;;;5045379;28;20183;-55
2023/02/02 07:22:08;;;;;;;5.80;2.53;;;3.30;99.90;;;;;;5040119;28;20724;-55
2023/02/02 07:24:33;;;;;;;4.10;1.97;;;3.30;99.90;;;;;;5040720;28;20175;-54
2023/02/02 07:26:59;;;;;;;10.40;2.40;;;3.30;99.90;;;;;;5042816;28;20284;-54
2023/02/02 07:29:25;;;;;;;4.27;2.00;;;3.30;99.90;;;;;;5038735;28;20241;-54
2023/02/02 07:31:50;;;;;;;5.50;2.10;;;3.30;99.90;;;;;;5038779;28;20201;-54
2023/02/02 07:34:16;;;;;;;3.30;2.20;;;3.30;99.90;;;;;;5044222;28;20199;-54
2023/02/02 07:36:42;;;;;;;5.80;2.50;;;3.30;99.90;;;;;;5044954;28;20172;-55
2023/02/02 07:39:07;;;;;;;7.10;3.13;;;3.30;99.90;;;;;;5045178;28;20572;-61
2023/02/02 07:41:35;;;;;;;6.00;2.80;;;3.40;99.90;;;;;;5029644;28;21328;-54
2023/02/02 07:44:01;;;;;;;6.23;2.67;;;3.40;99.90;;;;;;5044696;28;20195;-55
2023/02/02 07:46:26;;;;;;;11.27;3.23;;;3.40;99.90;;;;;;5053060;28;20757;-55
2023/02/02 07:48:56;;;;;;;7.80;3.03;;;3.40;99.90;;;;;;5048735;28;20431;-56
2023/02/02 07:51:23;;;;;;;7.83;2.80;;;3.40;99.90;;;;;;5048906;28;20680;-55
2023/02/02 07:53:52;;;;;;;4.67;2.70;;;3.40;99.90;;;;;;5056960;28;20453;-55
2023/02/02 07:56:21;;;;;;;3.80;2.30;;;3.40;99.90;;;;;;5065553;28;20440;-55
2023/02/02 07:58:46;;;;;;;9.10;2.63;;;3.40;99.90;;;;;;5045672;28;20938;-55
2023/02/02 08:01:14;;;;;;;5.70;2.80;;;3.40;99.90;;;;;;5047867;28;20448;-55
2023/02/02 08:03:41;;;;;;;5.40;2.37;;;3.40;99.90;;;;;;5052040;28;20527;-55
2023/02/02 08:06:25;;;;;;;6.30;2.93;;;3.40;99.90;;;;;;5053615;28;20421;-54
2023/02/02 08:08:51;;;;;;;6.90;3.17;;;3.40;99.90;;;;;;5049303;28;20421;-57
2023/02/02 08:11:18;;;;;;;7.23;2.57;;;3.50;99.90;;;;;;5047931;28;20433;-54
2023/02/02 08:13:48;;;;;;;7.63;2.80;;;3.40;99.90;;;;;;5050562;28;20438;-54
2023/02/02 08:16:14;;;;;;;8.90;2.77;;;3.50;99.90;;;;;;5048719;28;20832;-55
2023/02/02 08:18:39;;;;;;;8.43;2.80;;;3.50;99.90;;;;;;5052859;28;20426;-54
2023/02/02 08:21:10;;;;;;;6.50;2.50;;;3.50;99.90;;;;;;5060579;28;20447;-54
2023/02/02 08:23:37;;;;;;;7.80;2.63;;;3.50;99.90;;;;;;5078028;28;20216;-56
2023/02/02 08:26:08;;;;;;;7.13;3.10;;;3.50;99.90;;;;;;5054355;28;20526;-55
2023/02/02 08:28:35;;;;;;;7.33;3.10;;;3.50;99.90;;;;;;5043417;28;20433;-54
2023/02/02 08:31:15;;;;;;;7.00;2.50;;;3.60;99.90;;;;;;5061169;28;20459;-55
2023/02/02 08:33:41;;;;;;;6.37;3.10;;;3.60;99.90;;;;;;5071485;28;20441;-55
2023/02/02 08:36:15;;;;;;;5.03;2.80;;;3.60;99.90;;;;;;5067093;28;20431;-55
2023/02/02 08:38:41;;;;;;;4.07;2.10;;;3.60;99.90;;;;;;5039958;28;20901;-54
2023/02/02 08:41:08;;;;;;;7.30;2.97;;;3.60;99.90;;;;;;5066774;28;20509;-55
2023/02/02 08:43:34;;;;;;;2.83;2.47;;;3.60;99.90;;;;;;5067309;28;20473;-54
2023/02/02 08:46:00;;;;;;;4.57;2.90;;;3.60;99.90;;;;;;5044882;28;20446;-54
2023/02/02 08:48:26;;;;;;;7.70;2.37;;;3.70;99.90;;;;;;5049811;28;20213;-54
2023/02/02 08:50:55;;;;;;;7.77;3.00;;;3.70;99.90;;;;;;5042094;28;20466;-55
2023/02/02 08:53:22;;;;;;;7.10;2.67;;;3.70;99.90;;;;;;5042455;28;20736;-55
2023/02/02 08:55:48;;;;;;;9.53;2.60;;;3.70;99.90;;;;;;5043775;28;21027;-55
2023/02/02 08:58:13;;;;;;;8.13;3.00;;;3.70;99.90;;;;;;5046879;28;20433;-55
2023/02/02 09:00:39;;;;;;;6.53;2.90;;;3.70;99.90;;;;;;5037053;28;20175;-55
2023/02/02 09:03:05;;;;;;;6.60;2.60;;;3.80;99.90;;;;;;5046179;28;20233;-55
2023/02/02 09:05:31;;;;;;;5.00;2.60;;;3.80;99.90;;;;;;5066780;28;20875;-55
2023/02/02 09:07:57;;;;;;;6.00;2.77;;;3.80;99.90;;;;;;5068346;28;20167;-55
2023/02/02 09:10:23;;;;;;;7.40;2.73;;;3.80;99.90;;;;;;5049904;28;20775;-54
2023/02/02 09:12:48;;;;;;;9.03;2.27;;;3.90;99.90;;;;;;5041781;28;20252;-55
2023/02/02 09:15:14;;;;;;;5.30;2.40;;;3.90;99.90;;;;;;5047397;28;20206;-55
2023/02/02 09:17:39;;;;;;;8.73;2.60;;;4.00;99.90;;;;;;5048989;28;20187;-55
2023/02/02 09:20:05;;;;;;;6.13;2.43;;;4.00;99.90;;;;;;5060751;28;20179;-55
2023/02/02 09:22:32;;;;;;;4.40;2.73;;;4.00;99.90;;;;;;5063767;28;20223;-55
2023/02/02 09:24:57;;;;;;;13.03;2.70;;;4.00;99.90;;;;;;5062289;28;20410;-55
2023/02/02 09:27:23;;;;;;;5.63;2.70;;;4.00;99.90;;;;;;5051649;28;20508;-55
2023/02/02 09:29:49;;;;;;;6.20;2.47;;;4.00;99.90;;;;;;5048683;28;20179;-54
2023/02/02 09:32:14;;;;;;;5.83;2.77;;;4.00;99.90;;;;;;5057164;28;20233;-58
2023/02/02 09:34:40;;;;;;;6.33;2.73;;;4.10;99.90;;;;;;5069480;28;20233;-55
2023/02/02 09:37:05;;;;;;;5.27;2.37;;;4.10;99.90;;;;;;5049609;28;20666;-54
2023/02/02 09:39:31;;;;;;;7.83;2.43;;;4.10;99.90;;;;;;5037116;28;20187;-55
2023/02/02 09:42:18;;;;;;;16.67;2.40;;;4.10;99.90;;;;;;5044128;28;20206;-54
2023/02/02 09:45:00;;;;;;;5.73;2.40;;;4.10;99.90;;;;;;5045169;28;20201;-55
2023/02/02 09:47:45;;;;;;;3.70;2.50;;;4.10;99.90;;;;;;5041279;28;21417;-55
2023/02/02 09:50:36;;;;;;;6.20;1.80;;;4.10;99.90;;;;;;5041490;28;20427;-55
2023/02/02 09:53:09;;;;;;;4.40;2.40;;;4.10;99.90;;;;;;5042682;28;20531;-55
2023/02/02 09:55:51;;;;;;;3.10;2.07;;;4.10;99.90;;;;;;5042758;28;20452;-55
2023/02/02 09:58:25;;;;;;;8.37;2.13;;;4.10;99.90;;;;;;5042909;28;20820;-55
2023/02/02 10:01:25;;;;;;;4.10;1.53;;;4.10;99.90;;;;;;5042955;28;20456;-54
2023/02/02 10:04:13;;;;;;;5.70;2.10;;;4.20;99.90;;;;;;5022852;28;20469;-56
2023/02/02 10:06:43;;;;;;;5.03;1.80;;;4.20;99.90;;;;;;5047177;28;20429;-57
2023/02/02 10:09:31;;;;;;;2.30;1.83;;;4.20;99.90;;;;;;5045510;28;20423;-55
2023/02/02 10:12:04;;;;;;;5.20;1.90;;;4.20;99.90;;;;;;5044864;28;20434;-55
2023/02/02 10:14:40;;;;;;;11.13;2.40;;;4.20;99.90;;;;;;5046256;28;20425;-55
2023/02/02 10:18:00;;;;;;;4.13;2.73;;;4.20;99.90;;;;;;5055570;28;20428;-55
2023/02/02 10:20:43;;;;;;;6.20;2.23;;;4.20;99.90;;;;;;4975251;28;20435;-55
2023/02/02 10:23:28;;;;;;;4.50;2.20;;;4.20;99.90;;;;;;5053100;28;20445;-57
2023/02/02 10:26:04;;;;;;;7.00;2.30;;;4.20;99.90;;;;;;5064287;28;20977;-55
2023/02/02 10:29:00;;;;;;;4.10;2.20;;;4.20;99.90;;;;;;5066429;28;20433;-56
2023/02/02 10:31:41;;;;;;;2.60;1.90;;;4.30;99.90;;;;;;5052400;28;20429;-55
2023/02/02 10:34:15;;;;;;;6.00;2.33;;;4.30;99.90;;;;;;5040337;28;20493;-56
2023/02/02 10:36:50;;;;;;;7.37;2.20;;;4.30;99.90;;;;;;5049345;28;20483;-55
2023/02/02 10:39:31;;;;;;;5.20;2.30;;;4.40;99.90;;;;;;5059440;28;20497;-55
2023/02/02 10:42:22;;;;;;;5.10;1.80;;;4.40;99.90;;;;;;5046559;28;20976;-57
2023/02/02 10:44:52;;;;;;;3.20;1.73;;;4.40;99.90;;;;;;5044429;28;20475;-56
2023/02/02 10:47:33;;;;;;;4.60;2.47;;;4.50;99.90;;;;;;5039296;28;20426;-56
2023/02/02 10:50:11;;;;;;;2.73;1.93;;;4.50;99.70;;;;;;5040019;28;20428;-59
2023/02/02 10:52:38;;;;;;;4.10;1.73;;;4.50;99.70;;;;;;5037444;28;20457;-55
2023/02/02 10:55:04;;;;;;;4.23;2.03;;;4.50;99.90;;;;;;5045442;28;20429;-56
2023/02/02 10:57:51;;;;;;;5.30;1.73;;;4.60;99.90;;;;;;5043651;28;20445;-57
2023/02/02 11:00:17;;;;;;;3.80;1.80;;;4.60;99.50;;;;;;5053163;28;20187;-56
2023/02/02 11:02:46;;;;;;;4.83;2.27;;;4.70;99.90;;;;;;5051827;28;21024;-56
2023/02/02 11:08:31;;;;;;;1.73;1.40;;;4.80;98.80;;;;;;5038152;28;20468;-56
2023/02/02 11:11:17;;;;;;;5.10;1.87;;;4.90;97.60;;;;;;5041021;28;20437;-55
2023/02/02 11:13:50;;;;;;;6.43;1.57;;;4.80;97.50;;;;;;5042111;28;20566;-55
2023/02/02 11:16:16;;;;;;;4.17;2.00;;;4.90;96.50;;;;;;5041211;28;20511;-56
2023/02/02 11:18:43;;;;;;;4.07;2.00;;;4.80;96.40;;;;;;5025988;28;20958;-55
2023/02/02 11:21:22;;;;;;;4.77;1.70;;;4.80;97.50;;;;;;5045395;28;20823;-56
2023/02/02 11:23:53;;;;;;;6.17;2.23;;;4.90;97.30;;;;;;5045916;28;20981;-56
2023/02/02 11:26:19;;;;;;;3.97;2.20;;;4.90;97.10;;;;;;5061221;28;20454;-56
2023/02/02 11:28:48;;;;;;;5.63;3.23;;;4.90;97.70;;;;;;5062302;28;20434;-56
2023/02/02 11:31:33;;;;;;;3.30;2.67;;;5.00;97.20;;;;;;5061612;28;20269;-54
2023/02/02 11:34:37;;;;;;;5.27;2.13;;;5.00;96.60;;;;;;5044886;28;20458;-53
2023/02/02 11:37:10;;;;;;;4.10;1.80;;;5.00;96.70;;;;;;5020594;28;20455;-53
2023/02/02 11:39:36;;;;;;;2.90;1.90;;;5.10;97.80;;;;;;5021528;28;20434;-53
2023/02/02 11:42:15;;;;;;;7.27;2.50;;;5.10;97.40;;;;;;5041343;28;20457;-56
2023/02/02 11:44:49;;;;;;;3.80;2.13;;;5.20;96.40;;;;;;5042525;28;20178;-54
2023/02/02 11:47:27;;;;;;;2.47;1.53;;;5.20;94.80;;;;;;5041923;28;20421;-53
2023/02/02 11:49:54;;;;;;;2.23;1.43;;;5.20;91.60;;;;;;5039016;28;20429;-54
2023/02/02 11:52:25;;;;;;;2.23;1.30;;;5.20;91.60;;;;;;5038135;28;20529;-54
2023/02/02 11:54:53;;;;;;;3.00;1.20;;;5.20;90.60;;;;;;5033349;28;20484;-55
2023/02/02 11:57:22;;;;;;;3.87;1.80;;;5.20;91.00;;;;;;5029109;28;20437;-56
2023/02/02 12:00:09;;;;;;;3.13;1.53;;;5.30;91.30;;;;;;5040183;28;21011;-55
2023/02/02 12:02:34;;;;;;;1.37;1.27;;;5.30;90.30;;;;;;5036264;28;20469;-56
2023/02/02 12:05:09;;;;;;;3.37;1.47;;;5.40;88.70;;;;;;5027175;28;21026;-55
2023/02/02 12:07:36;;;;;;;4.17;1.67;;;5.40;88.00;;;;;;5038429;28;20178;-54
2023/02/02 12:10:29;;;;;;;4.10;2.00;;;5.40;87.60;;;;;;5034150;28;20512;-59
2023/02/02 12:12:59;;;;;;;3.43;1.53;;;5.40;88.40;;;;;;5027222;28;20583;-55
2023/02/02 12:15:58;;;;;;;4.77;1.70;;;5.40;89.80;;;;;;5033247;28;20955;-55
2023/02/02 12:18:54;;;;;;;3.43;1.57;;;5.40;90.50;;;;;;5038197;28;20448;-55
2023/02/02 12:21:46;;;;;;;1.63;1.40;;;5.50;89.50;;;;;;5038547;28;20567;-54
2023/02/02 12:24:14;;;;;;;1.33;1.23;;;5.50;87.90;;;;;;5023453;28;20868;-55
2023/02/02 12:26:47;;;;;;;3.60;1.80;;;5.50;87.30;;;;;;5040778;28;20528;-53
2023/02/02 12:29:20;;;;;;;6.73;1.70;;;5.50;89.30;;;;;;5042579;28;20489;-53
2023/02/02 12:32:08;;;;;;;3.90;1.60;;;5.50;90.50;;;;;;5025192;28;20557;-53
2023/02/02 12:35:09;;;;;;;3.13;1.70;;;5.60;90.60;;;;;;5041238;28;20426;-53
2023/02/02 12:37:56;;;;;;;4.33;1.47;;;5.60;88.50;;;;;;5043227;28;20438;-53
2023/02/02 12:40:50;;;;;;;3.83;1.60;;;5.60;87.50;;;;;;5037674;28;20446;-59
2023/02/02 12:43:22;;;;;;;1.90;1.20;;;5.60;84.70;;;;;;5029232;28;20465;-49
2023/02/02 12:46:11;;;;;;;2.70;1.30;;;5.50;85.10;;;;;;5044987;28;20506;-55
2023/02/02 12:49:15;;;;;;;1.80;1.60;;;5.40;87.70;;;;;;5042110;28;20452;-53
2023/02/02 12:51:44;;;;;;;3.47;1.30;;;5.30;88.70;;;;;;5038965;28;20441;-54
2023/02/02 12:54:29;;;;;;;4.23;1.40;;;5.20;90.00;;;;;;5035710;28;20483;-54
2023/02/02 12:57:15;;;;;;;1.93;1.40;;;5.20;90.50;;;;;;5040710;28;20746;-54
2023/02/02 13:00:16;;;;;;;4.20;1.60;;;5.10;91.00;;;;;;5039163;28;20468;-54
2023/02/02 13:03:05;;;;;;;2.00;1.40;;;5.10;91.00;;;;;;4975421;28;20540;-56
2023/02/02 13:05:34;;;;;;;3.23;1.30;;;5.10;91.80;;;;;;5041728;28;21005;-55
2023/02/02 13:08:03;;;;;;;4.73;1.60;;;5.10;92.80;;;;;;5028108;28;20450;-57
2023/02/02 13:10:38;;;;;;;8.47;1.70;;;5.00;92.20;;;;;;5054999;28;20460;-54
2023/02/02 13:13:10;;;;;;;4.20;1.70;;;5.00;92.10;;;;;;5049161;28;21860;-54
2023/02/02 13:15:41;;;;;;;3.60;1.83;;;5.00;92.10;;;;;;5057126;28;20984;-54
2023/02/02 13:18:17;;;;;;;5.53;1.93;;;5.00;92.50;;;;;;5038171;28;20438;-56
2023/02/02 13:20:46;;;;;;;1.90;1.60;;;4.90;93.50;;;;;;5038944;28;20433;-54
2023/02/02 13:23:29;;;;;;;2.20;1.73;;;5.00;93.70;;;;;;5039778;28;20465;-54
2023/02/02 13:26:19;;;;;;;5.23;2.00;;;5.00;93.50;;;;;;5043340;28;20535;-54
2023/02/02 13:28:51;;;;;;;5.67;1.73;;;5.00;93.20;;;;;;5046521;28;20464;-55
2023/02/02 13:31:32;;;;;;;3.97;1.77;;;5.00;92.10;;;;;;5042444;28;20846;-55